FVCD weather

Chirundu Airport
Chirundu, Mashonaland West Province, Zimbabwe

Public forecast

Using degrees Celsius for public forecast. Weather courtesy of forecast.io.

METAR (pilot weather report)

Report is more than 6 hours old.

Closest report is Kariba International Airport, 31.3 nm (58.0 km) S. Retrieved 2019/07/15 09:00 UTC (5 days ago):

FVKB 150900Z 30004KT CAVOK 26/10 Q1024

TAF (pilot weather forecast)

Forecast is more than 12 hours old.

Closest forecast is Royal Zambesi Lodge Airstrip, 28.5 nm (52.7 km) NE. Retrieved 2019/07/18 00:00 UTC (2 days ago):

TAF FLRZ 182200Z 1900/2006 VRB03KT CAVOK BECMG 1904/1906 09005KT 9000 NSC BECMG 1907/1909 10005KT FEW025 BECMG 1914/1916 15005KT CAVOK